createdAt,value
2022-09-28T00:01:41.343Z,8.55
2022-09-28T00:05:27.058Z,8.65
2022-09-28T00:09:09.879Z,8.74
2022-09-28T00:12:55.548Z,8.72
2022-09-28T00:16:40.109Z,8.66
2022-09-28T00:20:22.951Z,8.70
2022-09-28T00:24:15.931Z,8.73
2022-09-28T00:27:58.634Z,8.73
2022-09-28T00:31:41.405Z,8.74
2022-09-28T00:35:24.143Z,8.69
2022-09-28T00:39:09.736Z,8.78
2022-09-28T00:42:52.449Z,8.72
2022-09-28T00:46:35.972Z,8.68
2022-09-28T00:50:23.283Z,8.70
2022-09-28T00:54:12.052Z,8.71
2022-09-28T00:57:59.266Z,8.75
2022-09-28T01:01:42.347Z,8.80
2022-09-28T01:05:25.815Z,8.72
2022-09-28T01:09:11.171Z,8.67
2022-09-28T01:12:53.962Z,8.69
2022-09-28T01:16:43.061Z,8.68
2022-09-28T01:20:42.103Z,8.67
2022-09-28T01:24:41.480Z,8.66
2022-09-28T01:28:28.452Z,8.61
2022-09-28T01:32:16.497Z,8.60
2022-09-28T01:36:03.331Z,8.51
2022-09-28T01:39:49.479Z,8.56
2022-09-28T01:43:37.196Z,8.55
2022-09-28T01:47:22.078Z,8.54
2022-09-28T01:51:16.018Z,8.69
2022-09-28T01:55:02.249Z,8.75
2022-09-28T01:58:50.322Z,8.72
2022-09-28T02:02:35.295Z,8.73
2022-09-28T02:06:23.177Z,8.78
2022-09-28T02:10:10.422Z,8.78
2022-09-28T02:13:57.673Z,8.85
2022-09-28T02:17:40.616Z,8.74
2022-09-28T02:21:26.932Z,8.79
2022-09-28T02:25:14.537Z,8.74
2022-09-28T02:28:59.305Z,8.73
2022-09-28T02:32:43.562Z,8.70
2022-09-28T02:36:26.949Z,8.65
2022-09-28T02:40:16.522Z,8.70
2022-09-28T02:44:07.097Z,8.72
2022-09-28T02:48:01.475Z,8.70
2022-09-28T02:51:51.295Z,8.79
2022-09-28T02:55:44.652Z,8.79
2022-09-28T02:59:47.844Z,8.77
2022-09-28T03:03:35.465Z,8.74
2022-09-28T03:07:25.551Z,8.77
2022-09-28T03:11:11.348Z,8.67
2022-09-28T03:15:09.337Z,8.57
2022-09-28T03:18:52.024Z,8.56
2022-09-28T03:22:34.773Z,8.49
2022-09-28T03:26:18.048Z,8.48
2022-09-28T03:30:01.053Z,8.46
2022-09-28T03:33:45.144Z,8.46
2022-09-28T03:37:27.917Z,8.43
2022-09-28T03:41:12.470Z,8.38
2022-09-28T03:44:55.381Z,8.33
2022-09-28T03:48:38.066Z,8.32
2022-09-28T03:52:22.079Z,8.27
2022-09-28T03:56:06.551Z,8.25
2022-09-28T03:59:51.962Z,8.25
2022-09-28T04:03:34.940Z,8.22
2022-09-28T04:07:17.595Z,8.23
2022-09-28T04:11:02.545Z,8.24
2022-09-28T04:14:45.262Z,8.28
2022-09-28T04:18:28.077Z,8.27
2022-09-28T04:22:10.766Z,8.27
2022-09-28T04:25:53.540Z,8.29
2022-09-28T04:29:37.804Z,8.31
2022-09-28T04:33:20.575Z,8.26
2022-09-28T04:37:05.055Z,8.25
2022-09-28T04:40:50.138Z,8.23
2022-09-28T04:44:32.901Z,8.24
2022-09-28T04:48:17.384Z,8.20
2022-09-28T04:52:00.091Z,8.23
2022-09-28T04:55:43.273Z,8.31
2022-09-28T04:59:26.005Z,8.40
2022-09-28T05:03:08.676Z,8.37
2022-09-28T05:06:52.710Z,8.38
2022-09-28T05:10:35.570Z,8.39
2022-09-28T05:14:18.276Z,8.46
2022-09-28T05:18:01.751Z,8.46
2022-09-28T05:21:45.991Z,8.40
2022-09-28T05:25:30.070Z,8.39
2022-09-28T05:29:12.824Z,8.24
2022-09-28T05:32:55.551Z,8.19
2022-09-28T05:36:39.146Z,8.12
2022-09-28T05:40:22.108Z,8.09
2022-09-28T05:44:06.258Z,8.10
2022-09-28T05:47:48.922Z,8.13
2022-09-28T05:51:31.608Z,8.18
2022-09-28T05:55:16.998Z,8.19
2022-09-28T05:58:59.882Z,8.17
2022-09-28T06:02:43.950Z,8.10
2022-09-28T06:06:26.739Z,7.99
2022-09-28T06:10:10.061Z,7.94
2022-09-28T06:13:54.697Z,7.91
2022-09-28T06:17:37.412Z,7.94
2022-09-28T06:21:21.542Z,7.98
2022-09-28T06:25:05.484Z,8.04
2022-09-28T06:28:48.212Z,7.92
2022-09-28T06:32:30.911Z,7.89
2022-09-28T06:36:13.691Z,7.90
2022-09-28T06:39:57.823Z,7.87
2022-09-28T06:43:40.587Z,9.24
2022-09-28T06:47:23.234Z,10.68
2022-09-28T06:51:07.110Z,11.80
2022-09-28T06:54:49.764Z,12.15
2022-09-28T06:58:33.815Z,11.21
2022-09-28T07:02:16.684Z,10.32
2022-09-28T07:05:59.418Z,9.85
2022-09-28T07:09:46.522Z,9.50
2022-09-28T07:13:49.538Z,9.40
2022-09-28T07:17:38.177Z,9.23
2022-09-28T07:21:29.603Z,9.16
2022-09-28T07:25:14.224Z,9.09
2022-09-28T07:28:58.313Z,9.13
2022-09-28T07:32:41.126Z,9.03
2022-09-28T07:36:23.854Z,8.95
2022-09-28T07:40:25.471Z,9.05
2022-09-28T07:44:09.827Z,9.03
2022-09-28T07:47:58.648Z,9.08
2022-09-28T07:51:43.550Z,9.13
2022-09-28T07:55:26.429Z,10.57
2022-09-28T07:59:10.615Z,10.33
2022-09-28T08:02:53.329Z,10.01
2022-09-28T08:06:36.060Z,9.82
2022-09-28T08:10:19.483Z,9.75
2022-09-28T08:14:02.276Z,9.67
2022-09-28T08:17:49.207Z,9.75
2022-09-28T08:21:47.289Z,9.63
2022-09-28T08:25:29.942Z,9.60
2022-09-28T08:29:12.621Z,9.65
2022-09-28T08:32:56.717Z,9.66
2022-09-28T08:36:39.516Z,9.64
2022-09-28T08:40:24.757Z,9.62
2022-09-28T08:44:23.683Z,9.62
2022-09-28T08:48:31.259Z,9.66
2022-09-28T08:52:17.922Z,9.65
2022-09-28T08:56:03.900Z,9.67
2022-09-28T08:59:53.331Z,9.70
2022-09-28T09:03:39.746Z,9.67
2022-09-28T09:07:40.448Z,9.75
2022-09-28T09:11:32.153Z,9.60
2022-09-28T09:15:22.759Z,9.32
2022-09-28T09:19:16.976Z,8.60
2022-09-28T09:23:00.916Z,8.25
2022-09-28T09:27:21.923Z,8.14
2022-09-28T09:31:09.831Z,8.11
2022-09-28T09:35:14.556Z,8.10
2022-09-28T09:39:08.357Z,8.11
2022-09-28T09:43:01.127Z,8.25
2022-09-28T09:46:47.240Z,8.33
2022-09-28T09:50:35.236Z,8.38
2022-09-28T09:54:22.468Z,8.41
2022-09-28T09:58:10.241Z,8.44
2022-09-28T10:01:53.466Z,8.41
2022-09-28T10:05:38.071Z,8.47
2022-09-28T10:09:24.918Z,8.54
2022-09-28T10:13:07.784Z,8.57
2022-09-28T10:16:52.567Z,8.61
2022-09-28T10:20:38.585Z,8.61
2022-09-28T10:24:29.424Z,8.51
2022-09-28T10:28:20.139Z,8.56
2022-09-28T10:32:03.237Z,8.73
2022-09-28T10:35:47.873Z,8.81
2022-09-28T10:39:33.519Z,8.92
2022-09-28T10:43:21.835Z,9.08
2022-09-28T10:47:07.954Z,9.26
2022-09-28T10:51:04.852Z,9.22
2022-09-28T10:54:55.910Z,9.40
2022-09-28T10:58:40.502Z,9.31
2022-09-28T11:02:26.864Z,9.42
2022-09-28T11:06:11.093Z,9.48
2022-09-28T11:09:55.049Z,9.50
2022-09-28T11:13:48.266Z,9.61
2022-09-28T11:17:32.914Z,9.75
2022-09-28T11:21:18.740Z,9.67
2022-09-28T11:25:21.180Z,9.72
2022-09-28T11:29:04.009Z,9.79
2022-09-28T11:32:46.770Z,9.79
2022-09-28T11:36:48.750Z,9.84
2022-09-28T11:40:43.303Z,9.74
2022-09-28T11:44:38.323Z,9.80
2022-09-28T11:48:24.714Z,9.99
2022-09-28T11:52:14.759Z,10.11
2022-09-28T11:56:03.299Z,10.18
2022-09-28T11:59:56.355Z,10.06
2022-09-28T12:03:43.225Z,9.96
2022-09-28T12:07:33.674Z,10.00
2022-09-28T12:11:19.176Z,10.02
2022-09-28T12:15:06.068Z,9.95
2022-09-28T12:18:51.868Z,9.89
2022-09-28T12:22:40.689Z,9.85
2022-09-28T12:26:29.382Z,9.81
2022-09-28T12:30:19.246Z,9.93
2022-09-28T12:34:02.657Z,10.00
2022-09-28T12:38:00.416Z,10.10
2022-09-28T12:41:51.636Z,10.10
2022-09-28T12:46:11.978Z,10.04
2022-09-28T12:50:38.044Z,10.09
2022-09-28T12:54:26.197Z,10.18
2022-09-28T12:58:22.961Z,10.17
2022-09-28T13:02:31.558Z,10.04
2022-09-28T13:06:33.928Z,9.85
2022-09-28T13:10:26.131Z,9.84
2022-09-28T13:14:23.807Z,9.72
2022-09-28T13:18:12.065Z,9.52
2022-09-28T13:22:00.415Z,9.43
2022-09-28T13:25:50.989Z,9.27
2022-09-28T13:29:34.996Z,9.29
2022-09-28T13:33:23.870Z,9.33
2022-09-28T13:37:20.880Z,9.35
2022-09-28T13:41:18.955Z,9.33
2022-09-28T13:45:24.817Z,9.27
2022-09-28T13:49:12.316Z,9.02
2022-09-28T13:53:03.858Z,8.77
2022-09-28T13:56:53.664Z,8.87
2022-09-28T14:00:43.344Z,8.96
2022-09-28T14:04:28.394Z,9.03
2022-09-28T14:08:29.064Z,9.11
2022-09-28T14:12:45.835Z,9.16
2022-09-28T14:16:31.088Z,9.26
2022-09-28T14:20:16.211Z,9.34
2022-09-28T14:24:09.439Z,9.32
2022-09-28T14:28:03.276Z,9.23
2022-09-28T14:31:45.945Z,9.19
2022-09-28T14:35:32.309Z,9.25
2022-09-28T14:39:37.316Z,9.27
2022-09-28T14:43:28.118Z,9.32
2022-09-28T14:47:26.515Z,9.37
2022-09-28T14:51:42.361Z,9.38
2022-09-28T14:55:28.881Z,9.33
2022-09-28T14:59:15.775Z,9.25
2022-09-28T15:03:01.614Z,9.16
2022-09-28T15:06:48.751Z,9.24
2022-09-28T15:10:33.051Z,9.15
2022-09-28T15:14:17.955Z,9.15
2022-09-28T15:18:08.587Z,9.14
2022-09-28T15:21:51.666Z,9.11
2022-09-28T15:25:35.866Z,9.13
2022-09-28T15:29:21.042Z,9.16
2022-09-28T15:33:19.145Z,9.22
2022-09-28T15:37:06.434Z,9.23
2022-09-28T15:40:50.278Z,9.19
2022-09-28T15:44:37.062Z,9.18
2022-09-28T15:48:23.060Z,9.17
2022-09-28T15:52:06.112Z,9.16
2022-09-28T15:55:51.294Z,9.10
2022-09-28T15:59:36.993Z,9.10
2022-09-28T16:03:24.875Z,9.12
2022-09-28T16:07:21.718Z,9.10
2022-09-28T16:11:12.095Z,9.13
2022-09-28T16:14:56.921Z,9.12
2022-09-28T16:18:40.220Z,9.08
2022-09-28T16:22:28.112Z,8.99
2022-09-28T16:26:16.631Z,8.92
2022-09-28T16:30:17.372Z,8.83
2022-09-28T16:34:02.291Z,8.87
2022-09-28T16:37:45.361Z,8.84
2022-09-28T16:41:28.922Z,8.72
2022-09-28T16:45:20.324Z,8.64
2022-09-28T16:49:03.563Z,8.63
2022-09-28T16:53:03.720Z,8.76
2022-09-28T16:56:46.450Z,8.99
2022-09-28T17:00:30.479Z,10.03
2022-09-28T17:04:13.137Z,10.29
2022-09-28T17:08:01.016Z,10.05
2022-09-28T17:11:44.405Z,9.76
2022-09-28T17:15:27.123Z,9.46
2022-09-28T17:19:19.547Z,9.27
2022-09-28T17:23:02.468Z,9.16
2022-09-28T17:26:46.095Z,9.08
2022-09-28T17:30:28.842Z,8.94
2022-09-28T17:34:12.607Z,8.86
2022-09-28T17:37:56.752Z,8.86
2022-09-28T17:41:39.739Z,8.79
2022-09-28T17:45:22.737Z,8.75
2022-09-28T17:49:07.265Z,8.69
2022-09-28T17:52:52.313Z,8.70
2022-09-28T17:56:36.918Z,8.68
2022-09-28T18:00:19.933Z,8.69
2022-09-28T18:04:03.284Z,8.72
2022-09-28T18:07:47.762Z,8.90
2022-09-28T18:11:30.956Z,9.15
2022-09-28T18:15:16.098Z,9.07
2022-09-28T18:18:59.349Z,8.72
2022-09-28T18:22:42.084Z,8.50
2022-09-28T18:26:24.780Z,8.51
2022-09-28T18:30:08.551Z,8.44
2022-09-28T18:33:59.099Z,8.43
2022-09-28T18:37:42.902Z,8.39
2022-09-28T18:41:25.663Z,8.39
2022-09-28T18:45:11.180Z,8.26
2022-09-28T18:48:55.246Z,8.26
2022-09-28T18:52:38.003Z,8.22
2022-09-28T18:56:20.967Z,8.16
2022-09-28T19:00:06.816Z,8.15
2022-09-28T19:03:52.316Z,8.13
2022-09-28T19:07:36.495Z,8.13
2022-09-28T19:11:19.340Z,8.15
2022-09-28T19:15:02.048Z,8.09
2022-09-28T19:18:45.008Z,8.10
2022-09-28T19:22:28.343Z,8.38
2022-09-28T19:26:14.167Z,8.34
2022-09-28T19:29:56.809Z,8.05
2022-09-28T19:33:40.527Z,8.00
2022-09-28T19:37:23.238Z,7.99
2022-09-28T19:41:09.667Z,7.99
2022-09-28T19:44:53.901Z,8.10
2022-09-28T19:48:36.726Z,8.17
2022-09-28T19:52:19.423Z,8.09
2022-09-28T19:56:03.790Z,8.15
2022-09-28T19:59:52.548Z,8.15
2022-09-28T20:03:38.580Z,8.07
2022-09-28T20:07:21.771Z,8.04
2022-09-28T20:11:05.479Z,8.03
2022-09-28T20:14:48.140Z,8.12
2022-09-28T20:18:34.691Z,8.18
2022-09-28T20:22:19.792Z,8.18
2022-09-28T20:26:02.517Z,8.19
2022-09-28T20:29:45.192Z,8.19
2022-09-28T20:33:29.045Z,8.15
2022-09-28T20:37:13.667Z,8.15
2022-09-28T20:41:00.670Z,8.17
2022-09-28T20:44:43.418Z,8.74
2022-09-28T20:48:26.627Z,9.00
2022-09-28T20:52:09.298Z,8.80
2022-09-28T20:56:00.090Z,8.62
2022-09-28T20:59:42.735Z,8.50
2022-09-28T21:03:25.880Z,8.44
2022-09-28T21:07:08.867Z,8.35
2022-09-28T21:10:52.667Z,8.28
2022-09-28T21:14:36.690Z,8.28
2022-09-28T21:18:20.120Z,8.22
2022-09-28T21:22:02.825Z,8.18
2022-09-28T21:25:46.501Z,8.17
2022-09-28T21:29:29.438Z,8.13
2022-09-28T21:33:13.456Z,8.13
2022-09-28T21:36:57.893Z,8.11
2022-09-28T21:40:41.034Z,8.08
2022-09-28T21:44:23.846Z,7.96
2022-09-28T21:48:06.586Z,7.94
2022-09-28T21:51:51.727Z,7.97
2022-09-28T21:55:34.403Z,7.90
2022-09-28T21:59:17.059Z,7.88
2022-09-28T22:02:59.973Z,7.84
2022-09-28T22:06:42.711Z,7.81
2022-09-28T22:10:26.777Z,7.80
2022-09-28T22:14:11.004Z,7.83
2022-09-28T22:17:53.763Z,7.86
2022-09-28T22:21:36.425Z,7.84
2022-09-28T22:25:19.288Z,7.84
2022-09-28T22:29:05.066Z,7.84
2022-09-28T22:32:48.131Z,7.83
2022-09-28T22:36:31.321Z,7.84
2022-09-28T22:40:14.513Z,7.87
2022-09-28T22:43:57.467Z,7.90
2022-09-28T22:47:41.517Z,7.91
2022-09-28T22:51:25.198Z,7.92
2022-09-28T22:55:08.507Z,7.94
2022-09-28T22:58:51.221Z,7.96
2022-09-28T23:02:33.998Z,7.98
2022-09-28T23:06:21.091Z,8.00
2022-09-28T23:10:03.883Z,8.01
2022-09-28T23:13:49.932Z,8.02
2022-09-28T23:17:42.670Z,8.02
2022-09-28T23:21:28.104Z,8.03
2022-09-28T23:25:11.108Z,8.01
2022-09-28T23:28:54.910Z,8.04
2022-09-28T23:32:46.533Z,7.97
2022-09-28T23:36:30.867Z,7.92
2022-09-28T23:40:13.632Z,7.89
2022-09-28T23:43:56.443Z,7.91
2022-09-28T23:47:51.716Z,7.90
2022-09-28T23:51:35.819Z,7.90
2022-09-28T23:55:21.145Z,7.95
2022-09-28T23:59:06.293Z,7.96
